Time;durP1;ratioP1;P1;durP2;ratioP2;P2;SDS_P1;SDS_P2;PMS_P1;PMS_P2;Temp;Humidity;BMP_temperature;BMP_pressure;BME280_temperature;BME280_humidity;BME280_pressure;Samples;Min_cycle;Max_cycle;Signal;HPM_P1;HPM_P2
2024/01/18 00:01:32;;;;;;;27.42;18.02;;;-1.80;99.90;;;;;;4988895;28;20282;-71
2024/01/18 00:04:01;;;;;;;26.27;16.35;;;-1.70;99.90;;;;;;4985744;28;20077;-72
2024/01/18 00:06:27;;;;;;;22.35;15.25;;;-1.60;99.90;;;;;;4991529;28;20041;-72
2024/01/18 00:08:53;;;;;;;27.20;17.35;;;-1.50;99.90;;;;;;4992056;28;20466;-72
2024/01/18 00:11:18;;;;;;;19.77;13.95;;;-1.50;99.90;;;;;;5024227;28;20044;-72
2024/01/18 00:13:44;;;;;;;23.25;15.35;;;-1.40;99.90;;;;;;4997473;28;20164;-72
2024/01/18 00:16:10;;;;;;;23.48;15.85;;;-1.60;99.90;;;;;;4981874;28;20122;-72
2024/01/18 00:18:36;;;;;;;24.08;17.02;;;-1.70;99.90;;;;;;4988828;28;20347;-72
2024/01/18 00:21:03;;;;;;;20.83;15.52;;;-1.70;99.90;;;;;;5013337;28;20525;-71
2024/01/18 00:23:29;;;;;;;23.63;14.77;;;-1.60;99.90;;;;;;5018921;28;20398;-71
2024/01/18 00:25:55;;;;;;;22.98;15.35;;;-1.50;99.90;;;;;;4989775;28;20042;-71
2024/01/18 00:28:20;;;;;;;25.67;15.52;;;-1.40;99.90;;;;;;4993246;28;20226;-72
2024/01/18 00:30:46;;;;;;;21.58;12.80;;;-1.40;99.90;;;;;;4993426;28;20046;-71
2024/01/18 00:33:12;;;;;;;14.90;11.18;;;-1.40;99.90;;;;;;4997596;28;20579;-72
2024/01/18 00:35:38;;;;;;;13.95;10.05;;;-1.50;99.90;;;;;;4994460;28;20041;-71
2024/01/18 00:38:04;;;;;;;19.20;14.18;;;-1.30;99.90;;;;;;4992536;28;20476;-72
2024/01/18 00:40:30;;;;;;;15.90;9.65;;;-1.30;99.90;;;;;;4997392;28;20050;-71
2024/01/18 00:42:55;;;;;;;15.80;10.27;;;-1.10;99.90;;;;;;4994051;28;20402;-71
2024/01/18 00:45:21;;;;;;;18.38;9.10;;;-1.30;99.90;;;;;;4991694;28;20065;-72
2024/01/18 00:47:47;;;;;;;15.85;10.50;;;-1.10;99.90;;;;;;5024899;28;20042;-71
2024/01/18 00:50:13;;;;;;;13.30;8.38;;;-1.30;99.90;;;;;;5027484;28;20576;-71
2024/01/18 00:52:39;;;;;;;13.93;9.55;;;-1.10;99.90;;;;;;4996794;28;20627;-71
2024/01/18 00:55:06;;;;;;;15.48;8.13;;;-1.30;99.90;;;;;;4981204;28;20488;-71
2024/01/18 00:57:33;;;;;;;14.10;6.97;;;-1.20;99.90;;;;;;4990979;28;20489;-71
2024/01/18 00:59:59;;;;;;;16.15;7.47;;;-1.20;99.90;;;;;;4994519;28;20573;-72
2024/01/18 01:02:25;;;;;;;10.27;5.88;;;-1.20;99.90;;;;;;4996081;28;20644;-71
2024/01/18 01:04:51;;;;;;;10.40;5.43;;;-1.20;99.90;;;;;;4981045;28;20042;-72
2024/01/18 01:07:17;;;;;;;9.55;6.22;;;-1.20;99.90;;;;;;4993385;28;20050;-71
2024/01/18 01:09:42;;;;;;;12.60;5.60;;;-1.20;99.90;;;;;;4994207;28;20054;-72
2024/01/18 01:12:08;;;;;;;7.43;4.97;;;-1.20;99.90;;;;;;5004626;28;20049;-72
2024/01/18 01:14:34;;;;;;;13.23;5.28;;;-1.30;99.90;;;;;;4994948;28;20049;-71
2024/01/18 01:17:00;;;;;;;11.05;5.05;;;-1.40;99.90;;;;;;4996388;28;20125;-71
2024/01/18 01:19:25;;;;;;;12.63;5.57;;;-1.40;99.90;;;;;;4987990;28;20489;-72
2024/01/18 01:21:51;;;;;;;9.77;5.00;;;-1.40;99.90;;;;;;4997143;28;20046;-72
2024/01/18 01:24:17;;;;;;;12.48;5.75;;;-1.50;99.90;;;;;;4995078;28;20527;-72
2024/01/18 01:26:42;;;;;;;9.73;5.68;;;-1.60;99.90;;;;;;4994449;28;20200;-71
2024/01/18 01:29:10;;;;;;;8.52;5.38;;;-1.70;99.90;;;;;;5024300;28;20049;-72
2024/01/18 01:31:36;;;;;;;8.70;6.20;;;-1.70;99.90;;;;;;4997644;28;20271;-71
2024/01/18 01:34:02;;;;;;;9.13;5.25;;;-1.90;99.90;;;;;;4994542;28;20038;-72
2024/01/18 01:36:27;;;;;;;8.18;4.88;;;-1.70;99.90;;;;;;4987419;28;20054;-71
2024/01/18 01:38:53;;;;;;;14.35;5.43;;;-1.60;99.90;;;;;;4978809;28;20304;-71
2024/01/18 01:41:19;;;;;;;10.15;4.68;;;-1.50;99.90;;;;;;5025556;28;20672;-71
2024/01/18 01:43:59;;;;;;;10.35;5.10;;;-1.60;99.90;;;;;;4991235;28;20053;-71
2024/01/18 01:46:25;;;;;;;10.27;5.00;;;-1.60;99.90;;;;;;4994027;28;20108;-72
2024/01/18 01:48:59;;;;;;;9.15;4.28;;;-1.60;99.90;;;;;;4990484;28;20156;-71
2024/01/18 01:51:25;;;;;;;8.95;4.60;;;-1.60;99.90;;;;;;4986940;28;20100;-71
2024/01/18 01:53:52;;;;;;;8.05;4.03;;;-1.50;99.90;;;;;;4988679;28;20525;-72
2024/01/18 01:56:19;;;;;;;12.00;4.30;;;-1.60;99.90;;;;;;4996013;28;20034;-72
2024/01/18 01:58:45;;;;;;;7.72;3.78;;;-1.50;99.90;;;;;;4990854;28;20112;-72
2024/01/18 02:01:11;;;;;;;10.38;3.97;;;-1.60;99.90;;;;;;5020030;28;20121;-71
2024/01/18 02:03:36;;;;;;;6.82;3.55;;;-1.60;99.90;;;;;;5026332;28;20045;-72
2024/01/18 02:06:02;;;;;;;6.60;3.33;;;-1.60;99.90;;;;;;4981559;28;20441;-71
2024/01/18 02:08:28;;;;;;;7.97;3.33;;;-1.60;99.90;;;;;;4994912;28;20516;-71
2024/01/18 02:10:54;;;;;;;7.07;3.20;;;-1.60;99.90;;;;;;4988780;28;20041;-71
2024/01/18 02:13:21;;;;;;;9.05;3.30;;;-1.70;99.90;;;;;;4985079;28;20069;-71
2024/01/18 02:15:47;;;;;;;11.85;3.55;;;-1.60;99.90;;;;;;4993241;28;20189;-71
2024/01/18 02:18:13;;;;;;;8.50;3.03;;;-1.60;99.90;;;;;;4981654;28;20033;-72
2024/01/18 02:20:39;;;;;;;5.18;2.90;;;-1.70;99.90;;;;;;4990924;28;20209;-71
2024/01/18 02:23:06;;;;;;;9.23;3.17;;;-1.80;99.90;;;;;;4970379;28;20121;-72
2024/01/18 02:25:32;;;;;;;8.18;2.90;;;-1.80;99.90;;;;;;5001400;28;20226;-71
2024/01/18 02:27:58;;;;;;;5.93;2.95;;;-1.70;99.90;;;;;;5020398;28;20038;-71
2024/01/18 02:30:24;;;;;;;9.63;3.17;;;-1.90;99.90;;;;;;4991376;28;20540;-72
2024/01/18 02:32:50;;;;;;;5.78;3.03;;;-1.90;99.90;;;;;;4991612;28;20042;-72
2024/01/18 02:35:17;;;;;;;8.27;2.80;;;-1.90;99.90;;;;;;4977965;28;20042;-71
2024/01/18 02:37:43;;;;;;;10.07;2.80;;;-1.80;99.90;;;;;;4980000;28;20058;-71
2024/01/18 02:40:09;;;;;;;7.60;2.90;;;-1.80;99.90;;;;;;4991398;28;20057;-72
2024/01/18 02:42:35;;;;;;;8.35;3.00;;;-1.80;99.90;;;;;;5020759;28;21003;-71
2024/01/18 02:45:04;;;;;;;8.10;2.92;;;-1.90;99.90;;;;;;4988863;28;20156;-71
2024/01/18 02:47:30;;;;;;;6.47;3.35;;;-1.90;99.90;;;;;;4989630;28;20037;-71
2024/01/18 02:49:57;;;;;;;8.32;2.90;;;-1.80;99.90;;;;;;4993923;28;20042;-72
2024/01/18 02:52:22;;;;;;;7.10;3.00;;;-1.90;99.90;;;;;;4978608;28;20053;-71
2024/01/18 02:54:48;;;;;;;10.27;2.80;;;-2.00;99.90;;;;;;4992873;28;20042;-71
2024/01/18 02:57:14;;;;;;;7.00;2.90;;;-2.00;99.90;;;;;;4990440;28;20089;-71
2024/01/18 02:59:40;;;;;;;9.38;3.05;;;-1.90;99.90;;;;;;5020893;28;20409;-71
2024/01/18 03:02:05;;;;;;;6.93;3.03;;;-1.90;99.90;;;;;;5005553;28;20041;-71
2024/01/18 03:04:31;;;;;;;7.30;2.83;;;-2.00;99.90;;;;;;5021344;28;20042;-71
2024/01/18 03:06:57;;;;;;;6.75;2.50;;;-2.00;99.90;;;;;;5005047;28;20038;-71
2024/01/18 03:09:23;;;;;;;8.50;2.60;;;-2.00;99.90;;;;;;4994094;28;20069;-71
2024/01/18 03:11:49;;;;;;;6.43;2.70;;;-2.00;99.90;;;;;;4991819;28;20050;-71
2024/01/18 03:14:15;;;;;;;5.80;2.35;;;-2.00;99.90;;;;;;4997270;28;20354;-71
2024/01/18 03:16:43;;;;;;;4.85;2.25;;;-1.90;99.90;;;;;;4981567;28;20038;-71
2024/01/18 03:19:10;;;;;;;6.78;2.60;;;-1.70;99.90;;;;;;4989957;28;20485;-71
2024/01/18 03:21:36;;;;;;;7.53;2.28;;;-1.80;99.90;;;;;;4993637;28;20041;-71
2024/01/18 03:24:02;;;;;;;9.95;2.80;;;-1.80;99.90;;;;;;5006614;28;20034;-71
2024/01/18 03:26:28;;;;;;;4.82;2.38;;;-1.80;99.90;;;;;;5009968;28;20046;-71
2024/01/18 03:28:53;;;;;;;6.28;2.40;;;-1.70;99.90;;;;;;4983377;28;20046;-71
2024/01/18 03:31:19;;;;;;;5.72;2.30;;;-1.80;99.90;;;;;;5014028;28;20385;-71
2024/01/18 03:33:45;;;;;;;4.57;2.28;;;-1.70;99.90;;;;;;4984861;28;20149;-71
2024/01/18 03:36:11;;;;;;;5.18;2.00;;;-1.70;99.90;;;;;;4994032;28;20061;-71
2024/01/18 03:38:36;;;;;;;5.45;2.20;;;-1.60;99.90;;;;;;4992898;28;20137;-71
2024/01/18 03:41:03;;;;;;;9.48;2.17;;;-1.70;99.90;;;;;;4987418;28;20034;-71
2024/01/18 03:43:28;;;;;;;5.22;2.33;;;-1.80;99.90;;;;;;4991730;28;20057;-71
2024/01/18 03:45:55;;;;;;;7.15;2.05;;;-1.80;99.90;;;;;;4981644;28;20045;-71
2024/01/18 03:48:20;;;;;;;7.38;2.17;;;-1.80;99.90;;;;;;5015866;28;20092;-71
2024/01/18 03:50:46;;;;;;;6.03;1.98;;;-1.50;99.90;;;;;;4994965;28;20075;-71
2024/01/18 03:53:12;;;;;;;8.13;2.00;;;-1.50;99.90;;;;;;4991069;28;20861;-71
2024/01/18 03:55:38;;;;;;;7.82;1.70;;;-1.40;99.90;;;;;;5023251;28;20038;-71
2024/01/18 03:58:04;;;;;;;3.15;1.67;;;-1.50;99.90;;;;;;4982746;28;20050;-71
2024/01/18 04:00:30;;;;;;;6.40;1.70;;;-1.40;99.90;;;;;;4979717;28;20046;-71
2024/01/18 04:02:56;;;;;;;4.78;1.90;;;-1.50;99.90;;;;;;4993821;28;20046;-71
2024/01/18 04:05:21;;;;;;;3.83;1.42;;;-1.50;99.90;;;;;;4981650;28;20069;-71
2024/01/18 04:07:47;;;;;;;5.22;1.40;;;-1.30;99.90;;;;;;4995411;28;20046;-71
2024/01/18 04:10:13;;;;;;;3.97;1.50;;;-1.20;99.90;;;;;;4990602;28;20042;-71
2024/01/18 04:12:39;;;;;;;8.98;1.85;;;-1.30;99.90;;;;;;4996852;28;21243;-72
2024/01/18 04:15:08;;;;;;;3.38;1.50;;;-1.20;99.90;;;;;;4991100;28;20049;-71
2024/01/18 04:17:34;;;;;;;5.30;1.38;;;-1.10;99.90;;;;;;4990727;28;20042;-71
2024/01/18 04:20:00;;;;;;;7.50;1.75;;;-1.00;99.90;;;;;;4993790;28;20041;-71
2024/01/18 04:22:26;;;;;;;4.93;1.52;;;-0.90;99.90;;;;;;5024642;28;20075;-71
2024/01/18 04:24:53;;;;;;;6.90;1.48;;;-1.00;99.90;;;;;;4995660;28;20074;-71
2024/01/18 04:27:19;;;;;;;5.97;1.65;;;-0.80;99.90;;;;;;4995936;28;20514;-71
2024/01/18 04:29:44;;;;;;;3.58;1.40;;;-0.80;99.90;;;;;;4990829;28;20074;-71
2024/01/18 04:32:10;;;;;;;5.55;1.65;;;-0.90;99.90;;;;;;4982472;28;20037;-71
2024/01/18 04:34:37;;;;;;;4.65;1.60;;;-0.80;99.90;;;;;;5007989;28;20286;-71
2024/01/18 04:37:03;;;;;;;9.82;2.03;;;-0.80;99.90;;;;;;5001777;28;20156;-71
2024/01/18 04:39:29;;;;;;;7.10;1.58;;;-0.70;99.90;;;;;;4983637;28;20057;-71
2024/01/18 04:41:55;;;;;;;7.43;1.83;;;-0.80;99.90;;;;;;4993583;28;20125;-71
2024/01/18 04:44:21;;;;;;;4.18;1.65;;;-0.80;99.90;;;;;;4995199;28;20370;-71
2024/01/18 04:46:47;;;;;;;3.83;1.35;;;-0.90;99.90;;;;;;4992019;28;20037;-71
2024/01/18 04:49:13;;;;;;;7.60;1.80;;;-1.10;99.90;;;;;;4983189;28;20030;-71
2024/01/18 04:51:39;;;;;;;10.80;1.48;;;-1.10;99.90;;;;;;4979100;28;20043;-71
2024/01/18 04:54:05;;;;;;;5.75;1.55;;;-1.30;99.90;;;;;;4998008;28;20485;-71
2024/01/18 04:56:31;;;;;;;3.75;1.38;;;-1.40;99.90;;;;;;5002434;28;20037;-71
2024/01/18 04:58:57;;;;;;;5.43;1.55;;;-1.40;99.90;;;;;;5009730;28;20049;-71
2024/01/18 05:01:23;;;;;;;4.25;1.35;;;-1.50;99.90;;;;;;4986737;28;20034;-71
2024/01/18 05:03:49;;;;;;;9.70;1.52;;;-1.50;99.90;;;;;;4993272;28;20046;-71
2024/01/18 05:06:14;;;;;;;5.25;1.73;;;-1.60;99.90;;;;;;4979094;28;20064;-71
2024/01/18 05:08:40;;;;;;;10.68;1.50;;;-1.60;99.90;;;;;;4980440;28;20051;-71
2024/01/18 05:11:06;;;;;;;7.85;1.65;;;-1.60;99.90;;;;;;4990936;28;20045;-71
2024/01/18 05:13:32;;;;;;;10.63;1.73;;;-1.50;99.90;;;;;;4991569;28;20052;-71
2024/01/18 05:15:59;;;;;;;7.90;1.60;;;-1.70;99.90;;;;;;4981181;28;20520;-71
2024/01/18 05:18:25;;;;;;;11.20;2.10;;;-1.80;99.90;;;;;;4992204;28;20073;-71
2024/01/18 05:20:50;;;;;;;5.13;1.55;;;-1.80;99.90;;;;;;4979464;28;20085;-71
2024/01/18 05:23:16;;;;;;;5.47;1.40;;;-1.70;99.90;;;;;;4993290;28;20041;-71
2024/01/18 05:25:42;;;;;;;5.07;1.40;;;-1.60;99.90;;;;;;5000002;28;20045;-71
2024/01/18 05:28:08;;;;;;;3.92;1.60;;;-1.80;99.90;;;;;;4991762;28;20065;-71
2024/01/18 05:30:33;;;;;;;5.75;1.60;;;-1.70;99.90;;;;;;4991651;28;21205;-71
2024/01/18 05:32:59;;;;;;;3.13;1.23;;;-1.60;99.90;;;;;;5026275;28;20046;-71
2024/01/18 05:35:25;;;;;;;4.18;1.23;;;-1.70;99.90;;;;;;4994683;28;20107;-71
2024/01/18 05:37:50;;;;;;;4.75;1.25;;;-1.80;99.90;;;;;;4989802;28;20108;-71
2024/01/18 05:40:21;;;;;;;3.40;1.83;;;-1.70;99.90;;;;;;5028989;28;20688;-71
2024/01/18 05:42:46;;;;;;;3.58;1.20;;;-1.80;99.90;;;;;;4979942;28;20167;-71
2024/01/18 05:45:12;;;;;;;4.18;1.50;;;-1.80;99.90;;;;;;4992526;28;21090;-71
2024/01/18 05:47:39;;;;;;;4.40;1.30;;;-1.80;99.90;;;;;;4993165;28;20037;-71
2024/01/18 05:50:08;;;;;;;4.50;1.13;;;-1.70;99.90;;;;;;4979022;28;20053;-71
2024/01/18 05:52:34;;;;;;;5.40;1.80;;;-1.60;99.90;;;;;;4994509;28;20056;-71
2024/01/18 05:55:00;;;;;;;6.63;1.60;;;-1.60;99.90;;;;;;4993918;28;20219;-71
2024/01/18 05:57:26;;;;;;;4.88;1.88;;;-1.60;99.90;;;;;;5022969;28;20042;-71
2024/01/18 05:59:51;;;;;;;4.28;1.50;;;-1.70;99.90;;;;;;4981140;28;20049;-71
2024/01/18 06:02:20;;;;;;;4.78;1.67;;;-1.70;99.90;;;;;;4994013;28;20038;-71
2024/01/18 06:04:47;;;;;;;5.55;1.55;;;-1.90;99.90;;;;;;4990196;28;20060;-71
2024/01/18 06:07:13;;;;;;;4.15;1.40;;;-1.90;99.90;;;;;;4994798;28;20130;-71
2024/01/18 06:09:38;;;;;;;5.28;1.48;;;-1.80;99.90;;;;;;4975942;28;20131;-71
2024/01/18 06:12:04;;;;;;;3.95;1.20;;;-1.70;99.90;;;;;;5010887;28;20072;-71
2024/01/18 06:14:30;;;;;;;3.10;1.52;;;-1.60;99.90;;;;;;4993377;28;20366;-71
2024/01/18 06:16:56;;;;;;;5.38;1.17;;;-1.60;99.90;;;;;;4989032;28;20438;-71
2024/01/18 06:19:23;;;;;;;4.57;1.30;;;-1.50;99.90;;;;;;4981446;28;20145;-71
2024/01/18 06:21:49;;;;;;;3.53;1.38;;;-1.30;99.90;;;;;;4978929;28;20038;-71
2024/01/18 06:24:15;;;;;;;6.63;1.65;;;-1.30;99.90;;;;;;4977267;28;20034;-71
2024/01/18 06:26:41;;;;;;;5.95;1.45;;;-1.20;99.90;;;;;;5007051;28;20096;-71
2024/01/18 06:29:07;;;;;;;6.65;1.30;;;-1.00;99.90;;;;;;4994436;28;20500;-71
2024/01/18 06:31:33;;;;;;;3.80;1.48;;;-0.90;99.90;;;;;;4988622;28;20038;-71
2024/01/18 06:33:59;;;;;;;8.15;1.38;;;-0.80;99.90;;;;;;4990272;28;20077;-71
2024/01/18 06:36:25;;;;;;;1.52;1.00;;;-0.80;99.90;;;;;;4973874;28;20093;-71
2024/01/18 06:38:50;;;;;;;2.60;1.00;;;-0.80;99.90;;;;;;4997086;28;20149;-71
2024/01/18 06:41:17;;;;;;;4.28;1.10;;;-0.90;99.90;;;;;;4987180;28;20099;-71
2024/01/18 06:43:43;;;;;;;2.42;0.93;;;-1.00;99.90;;;;;;4982964;28;20042;-71
2024/01/18 06:46:18;;;;;;;4.28;1.25;;;-0.90;99.90;;;;;;4990210;28;20068;-71
2024/01/18 06:48:52;;;;;;;2.95;1.10;;;-1.00;99.90;;;;;;4994015;28;20088;-71
2024/01/18 06:51:21;;;;;;;3.78;1.05;;;-1.10;99.90;;;;;;4996613;28;20069;-71
2024/01/18 06:53:47;;;;;;;4.10;1.50;;;-1.10;99.90;;;;;;4985303;28;20078;-71
2024/01/18 06:56:13;;;;;;;3.17;1.15;;;-1.10;99.90;;;;;;4978366;28;20046;-71
2024/01/18 06:58:40;;;;;;;3.20;1.08;;;-1.10;99.90;;;;;;5007772;28;20131;-71
2024/01/18 07:01:06;;;;;;;4.00;1.10;;;-1.20;99.90;;;;;;4980125;28;20520;-71
2024/01/18 07:03:35;;;;;;;7.10;1.48;;;-1.20;99.90;;;;;;5017696;28;20192;-71
2024/01/18 07:06:02;;;;;;;7.78;1.20;;;-1.20;99.90;;;;;;4991178;28;20813;-71
2024/01/18 07:08:29;;;;;;;7.95;1.40;;;-1.30;99.90;;;;;;4997166;28;20057;-71
2024/01/18 07:10:55;;;;;;;7.05;1.27;;;-1.30;99.90;;;;;;5029946;28;20085;-71
2024/01/18 07:13:21;;;;;;;7.28;1.13;;;-1.40;99.90;;;;;;5001621;28;20409;-71
2024/01/18 07:15:46;;;;;;;6.10;1.10;;;-1.40;99.90;;;;;;5001141;28;20508;-71
2024/01/18 07:18:12;;;;;;;5.00;1.33;;;-1.40;99.90;;;;;;4985249;28;20137;-71
2024/01/18 07:20:39;;;;;;;3.47;1.10;;;-1.30;99.90;;;;;;5026587;28;20112;-71
2024/01/18 07:23:04;;;;;;;6.22;1.10;;;-1.30;99.90;;;;;;4982382;28;20046;-71
2024/01/18 07:25:30;;;;;;;5.13;1.10;;;-1.30;99.90;;;;;;4982343;28;20041;-71
2024/01/18 07:27:56;;;;;;;7.35;1.45;;;-1.20;99.90;;;;;;4984796;28;20038;-71
2024/01/18 07:30:22;;;;;;;3.47;1.02;;;-1.30;99.90;;;;;;5006435;28;20038;-73
2024/01/18 07:32:48;;;;;;;7.38;1.10;;;-1.30;99.90;;;;;;5001803;28;20140;-73
2024/01/18 07:35:15;;;;;;;3.38;1.17;;;-1.20;99.90;;;;;;4998098;28;20525;-73
2024/01/18 07:37:41;;;;;;;3.17;1.00;;;-1.20;99.90;;;;;;4994060;28;20590;-73
2024/01/18 07:40:07;;;;;;;5.20;1.17;;;-1.20;99.90;;;;;;4991904;28;20038;-71
2024/01/18 07:42:33;;;;;;;3.72;1.10;;;-1.10;99.90;;;;;;4994799;28;20537;-71
2024/01/18 07:44:59;;;;;;;4.43;1.40;;;-1.20;99.90;;;;;;4980912;28;20121;-71
2024/01/18 07:47:25;;;;;;;3.25;1.23;;;-1.00;99.90;;;;;;4982697;28;20042;-71
2024/01/18 07:49:51;;;;;;;4.50;1.20;;;-1.10;99.90;;;;;;4990816;28;20064;-71
2024/01/18 07:52:18;;;;;;;8.48;1.00;;;-1.10;99.90;;;;;;4982468;28;21180;-71
2024/01/18 07:54:44;;;;;;;4.05;1.10;;;-1.00;99.90;;;;;;4993302;28;20553;-71
2024/01/18 07:57:10;;;;;;;5.13;1.08;;;-1.00;99.90;;;;;;4983157;28;20530;-71
2024/01/18 07:59:36;;;;;;;2.88;1.10;;;-1.20;99.90;;;;;;5010760;28;20042;-71
2024/01/18 08:02:02;;;;;;;4.63;1.00;;;-1.20;99.90;;;;;;4995433;28;20064;-71
2024/01/18 08:04:29;;;;;;;4.55;1.40;;;-1.20;99.90;;;;;;5009013;28;20038;-71
2024/01/18 08:06:55;;;;;;;4.68;1.20;;;-1.20;99.90;;;;;;4995227;28;20126;-71
2024/01/18 08:09:21;;;;;;;4.40;1.25;;;-1.10;99.90;;;;;;4994389;28;20026;-71
2024/01/18 08:11:47;;;;;;;4.88;1.40;;;-1.20;99.90;;;;;;4995857;28;20037;-71
2024/01/18 08:14:13;;;;;;;2.80;1.40;;;-1.40;99.90;;;;;;5013015;28;20081;-71
2024/01/18 08:16:39;;;;;;;6.13;1.95;;;-1.40;99.90;;;;;;4992032;28;20037;-71
2024/01/18 08:19:05;;;;;;;7.43;3.20;;;-1.40;99.90;;;;;;4978827;28;20564;-71
2024/01/18 08:21:31;;;;;;;3.95;1.88;;;-1.40;99.90;;;;;;5005226;28;20046;-71
2024/01/18 08:23:56;;;;;;;6.50;2.55;;;-1.40;99.90;;;;;;4984544;28;20042;-71
2024/01/18 08:26:22;;;;;;;6.97;2.88;;;-1.40;99.90;;;;;;4993692;28;20116;-71
2024/01/18 08:28:48;;;;;;;5.22;2.10;;;-1.30;99.90;;;;;;4979401;28;20052;-71
2024/01/18 08:31:14;;;;;;;4.78;1.95;;;-1.30;99.90;;;;;;4996392;28;20120;-71
2024/01/18 08:33:40;;;;;;;5.18;2.28;;;-1.20;99.90;;;;;;4998813;28;20412;-71
2024/01/18 08:36:08;;;;;;;5.70;1.90;;;-1.30;99.90;;;;;;4998399;28;20113;-71
2024/01/18 08:38:34;;;;;;;6.57;1.90;;;-1.20;99.90;;;;;;4997315;28;20042;-71
2024/01/18 08:41:00;;;;;;;6.78;2.13;;;-1.10;99.90;;;;;;4991441;28;20403;-71
2024/01/18 08:43:27;;;;;;;6.05;2.15;;;-1.20;99.90;;;;;;4982278;28;20125;-71
2024/01/18 08:45:56;;;;;;;7.82;2.20;;;-1.20;99.90;;;;;;5005426;28;20064;-71
2024/01/18 08:48:22;;;;;;;3.45;1.63;;;-1.20;99.90;;;;;;4982842;28;20472;-71
2024/01/18 08:50:48;;;;;;;3.03;1.58;;;-1.20;99.90;;;;;;5012939;28;20180;-71
2024/01/18 08:53:14;;;;;;;5.00;1.50;;;-0.80;99.90;;;;;;4990372;28;20049;-71
2024/01/18 08:55:41;;;;;;;7.85;1.30;;;-0.30;99.90;;;;;;4998830;28;20085;-71
2024/01/18 08:58:07;;;;;;;2.90;1.42;;;0.00;99.90;;;;;;4979707;28;20313;-71
2024/01/18 09:00:33;;;;;;;5.63;1.60;;;0.20;99.90;;;;;;4977849;28;20042;-71
2024/01/18 09:03:00;;;;;;;4.13;1.55;;;0.10;99.90;;;;;;5014707;28;20490;-71
2024/01/18 09:05:26;;;;;;;3.72;1.58;;;0.20;99.90;;;;;;4986623;28;20369;-71
2024/01/18 09:07:52;;;;;;;2.25;1.02;;;0.20;99.90;;;;;;4978013;28;20045;-71
2024/01/18 09:10:19;;;;;;;3.83;1.17;;;0.10;99.90;;;;;;4994283;28;20241;-71
2024/01/18 09:12:45;;;;;;;3.25;1.20;;;0.10;99.90;;;;;;4995074;28;20049;-71
2024/01/18 09:15:12;;;;;;;3.35;1.27;;;0.10;99.90;;;;;;5026743;28;20046;-71
2024/01/18 09:17:37;;;;;;;5.78;1.63;;;0.20;99.90;;;;;;4996865;28;20057;-71
2024/01/18 09:20:04;;;;;;;2.13;1.27;;;0.30;99.90;;;;;;4999712;28;20050;-71
2024/01/18 09:22:30;;;;;;;5.20;1.40;;;0.20;99.90;;;;;;4989278;28;20373;-71
2024/01/18 09:24:56;;;;;;;4.88;1.05;;;0.30;99.90;;;;;;4994183;28;20049;-71
2024/01/18 09:27:22;;;;;;;3.60;1.50;;;0.30;99.90;;;;;;4995578;28;20042;-71
2024/01/18 09:29:48;;;;;;;3.40;1.77;;;0.40;99.90;;;;;;4993298;28;20107;-71
2024/01/18 09:32:15;;;;;;;3.65;1.10;;;0.70;99.90;;;;;;4994980;28;20117;-71
2024/01/18 09:34:41;;;;;;;4.55;1.40;;;0.90;99.90;;;;;;4992525;28;20384;-71
2024/01/18 09:37:07;;;;;;;4.20;1.40;;;1.30;99.90;;;;;;4977182;28;20053;-71
2024/01/18 09:39:33;;;;;;;3.67;1.30;;;1.30;99.90;;;;;;5026825;28;20448;-71
2024/01/18 09:42:01;;;;;;;3.85;1.60;;;1.40;99.90;;;;;;5006291;28;20057;-72
2024/01/18 09:44:30;;;;;;;5.22;1.42;;;1.50;99.90;;;;;;4991803;28;20045;-72
2024/01/18 09:46:57;;;;;;;6.18;1.45;;;1.50;99.90;;;;;;5016393;28;20064;-71
2024/01/18 09:49:24;;;;;;;5.90;1.55;;;1.60;99.90;;;;;;4990933;28;20089;-72
2024/01/18 09:51:50;;;;;;;4.40;2.00;;;1.50;99.90;;;;;;4995509;28;20057;-72
2024/01/18 09:54:17;;;;;;;4.53;1.75;;;1.50;99.90;;;;;;5023863;28;20331;-72
2024/01/18 09:56:45;;;;;;;6.38;2.00;;;1.40;99.90;;;;;;4993737;28;20057;-72
2024/01/18 09:59:18;;;;;;;2.85;1.60;;;1.50;99.90;;;;;;4981825;28;20037;-72
2024/01/18 10:01:47;;;;;;;7.15;1.98;;;1.50;99.90;;;;;;4988067;28;20053;-72
2024/01/18 10:04:14;;;;;;;5.13;2.15;;;1.50;99.90;;;;;;4995575;28;20128;-72
2024/01/18 10:06:41;;;;;;;6.68;1.98;;;1.40;99.90;;;;;;4993299;28;20045;-72
2024/01/18 10:09:10;;;;;;;4.28;1.90;;;1.60;99.90;;;;;;5030938;28;20081;-72
2024/01/18 10:11:37;;;;;;;6.20;1.70;;;1.70;99.90;;;;;;4989753;28;20132;-72
2024/01/18 10:14:04;;;;;;;3.25;1.70;;;1.70;99.90;;;;;;4997457;28;20058;-72
2024/01/18 10:16:32;;;;;;;5.47;1.60;;;1.90;99.90;;;;;;5019624;28;20449;-72
2024/01/18 10:19:14;;;;;;;2.55;0.90;;;1.90;99.90;;;;;;4982126;28;20095;-72
2024/01/18 10:21:41;;;;;;;4.05;1.20;;;2.00;99.90;;;;;;4991814;28;20208;-72
2024/01/18 10:24:14;;;;;;;4.65;1.50;;;1.80;99.90;;;;;;5016826;28;20238;-72
2024/01/18 10:26:40;;;;;;;4.30;1.40;;;1.70;99.90;;;;;;4997987;28;20046;-72
2024/01/18 10:29:09;;;;;;;4.97;1.40;;;1.50;99.90;;;;;;4997170;28;20481;-72
2024/01/18 10:31:41;;;;;;;2.88;1.40;;;1.60;99.90;;;;;;5000658;28;20142;-72
2024/01/18 10:34:07;;;;;;;4.63;1.30;;;1.60;99.90;;;;;;4996920;28;20053;-72
2024/01/18 10:36:33;;;;;;;4.75;1.23;;;1.60;99.90;;;;;;5020890;28;20081;-72
2024/01/18 10:39:17;;;;;;;4.15;1.15;;;1.70;99.90;;;;;;5000722;28;21143;-72
2024/01/18 10:41:44;;;;;;;4.00;1.27;;;1.90;99.90;;;;;;5017512;28;20175;-73
2024/01/18 10:44:10;;;;;;;2.95;1.38;;;2.00;99.90;;;;;;4985814;28;20060;-73
2024/01/18 10:46:36;;;;;;;1.90;0.90;;;2.20;99.90;;;;;;4993985;28;20048;-73
2024/01/18 10:49:05;;;;;;;3.92;1.05;;;2.30;99.90;;;;;;5025365;28;20046;-73
2024/01/18 10:51:31;;;;;;;2.85;1.10;;;2.50;99.90;;;;;;5000562;28;20505;-73
2024/01/18 10:53:57;;;;;;;3.30;1.33;;;2.60;99.90;;;;;;5001497;28;20362;-73
2024/01/18 10:56:23;;;;;;;5.38;1.13;;;2.60;99.90;;;;;;4999909;28;20038;-73
2024/01/18 10:58:49;;;;;;;4.85;1.15;;;2.70;99.90;;;;;;4999538;28;20283;-73
2024/01/18 11:01:17;;;;;;;4.53;1.50;;;2.60;99.90;;;;;;5000137;28;20420;-74
2024/01/18 11:03:43;;;;;;;1.85;0.90;;;2.50;99.90;;;;;;4986863;28;20556;-73
2024/01/18 11:06:12;;;;;;;3.42;1.20;;;2.60;99.90;;;;;;4996563;28;20054;-74
2024/01/18 11:08:39;;;;;;;4.68;1.40;;;2.70;99.90;;;;;;5000654;28;20041;-73
2024/01/18 11:11:06;;;;;;;5.07;1.23;;;3.10;99.90;;;;;;4993734;28;20189;-74
2024/01/18 11:13:33;;;;;;;4.07;1.30;;;3.40;99.90;;;;;;4992437;28;20366;-74
2024/01/18 11:15:59;;;;;;;3.15;1.45;;;3.40;99.90;;;;;;5000272;28;20365;-73
2024/01/18 11:18:25;;;;;;;5.32;1.70;;;2.90;99.90;;;;;;4982110;28;20046;-73
2024/01/18 11:21:04;;;;;;;7.25;1.95;;;2.60;99.90;;;;;;4983607;28;20461;-73
2024/01/18 11:23:40;;;;;;;3.35;1.70;;;2.50;99.90;;;;;;5030121;28;20045;-73
2024/01/18 11:26:08;;;;;;;4.70;1.67;;;2.20;99.90;;;;;;4999255;28;20064;-73
2024/01/18 11:28:35;;;;;;;8.27;1.70;;;2.10;99.90;;;;;;4996282;28;20045;-73
2024/01/18 11:31:01;;;;;;;3.10;1.40;;;2.10;99.90;;;;;;4992491;28;20472;-73
2024/01/18 11:33:28;;;;;;;3.33;1.60;;;2.10;99.90;;;;;;4985593;28;20069;-73
2024/01/18 11:35:56;;;;;;;2.63;1.55;;;2.10;99.90;;;;;;5009607;28;20041;-73
2024/01/18 11:38:32;;;;;;;4.95;1.65;;;2.10;99.90;;;;;;4999278;28;20308;-73
2024/01/18 11:41:08;;;;;;;4.78;1.42;;;2.20;99.90;;;;;;5028230;28;20194;-73
2024/01/18 11:44:01;;;;;;;4.25;1.60;;;2.20;99.90;;;;;;5028531;28;20076;-73
2024/01/18 11:46:49;;;;;;;2.13;1.63;;;2.40;99.90;;;;;;4999186;28;20092;-73
2024/01/18 11:49:15;;;;;;;5.13;1.60;;;2.40;99.90;;;;;;5010754;28;20049;-72
2024/01/18 11:51:43;;;;;;;5.15;1.40;;;2.40;99.90;;;;;;4981620;28;20412;-72
2024/01/18 11:54:12;;;;;;;3.80;1.67;;;2.60;99.90;;;;;;4978891;28;20043;-72
2024/01/18 11:56:40;;;;;;;5.03;1.45;;;2.50;99.90;;;;;;4996440;28;20117;-73
2024/01/18 11:59:08;;;;;;;2.58;1.55;;;2.50;99.90;;;;;;5027250;28;20046;-72
2024/01/18 12:01:34;;;;;;;4.43;1.60;;;2.60;99.90;;;;;;5026697;28;20050;-73
2024/01/18 12:04:00;;;;;;;3.58;1.70;;;2.60;99.90;;;;;;4998017;28;20042;-72
2024/01/18 12:06:28;;;;;;;4.55;1.65;;;2.60;99.90;;;;;;4996893;28;20034;-73
2024/01/18 12:08:54;;;;;;;3.10;1.35;;;2.70;99.90;;;;;;4982120;28;20042;-72
2024/01/18 12:11:20;;;;;;;7.68;1.95;;;2.80;99.90;;;;;;4996730;28;20042;-72
2024/01/18 12:13:47;;;;;;;7.13;1.40;;;2.90;99.90;;;;;;4994201;28;20410;-72
2024/01/18 12:16:13;;;;;;;4.47;1.50;;;2.80;99.90;;;;;;4993358;28;20096;-72
2024/01/18 12:18:45;;;;;;;5.47;1.20;;;2.80;99.90;;;;;;4994691;28;20117;-72
2024/01/18 12:21:11;;;;;;;10.25;1.48;;;2.90;99.90;;;;;;5009692;28;20587;-72
2024/01/18 12:23:37;;;;;;;4.53;1.20;;;2.90;99.90;;;;;;4980522;28;20099;-72
2024/01/18 12:26:04;;;;;;;5.47;1.30;;;2.90;99.90;;;;;;4984423;28;20037;-73
2024/01/18 12:28:30;;;;;;;3.30;1.25;;;3.00;99.90;;;;;;4999654;28;20037;-72
2024/01/18 12:31:01;;;;;;;8.05;1.58;;;3.00;99.90;;;;;;4994566;28;20053;-72
2024/01/18 12:33:30;;;;;;;6.40;1.40;;;3.10;99.90;;;;;;4980801;28;20194;-72
2024/01/18 12:35:57;;;;;;;3.80;1.23;;;3.00;99.90;;;;;;4990181;28;20053;-73
2024/01/18 12:38:23;;;;;;;1.70;0.90;;;3.00;99.90;;;;;;4998316;28;20038;-72
2024/01/18 12:40:49;;;;;;;3.10;1.38;;;3.10;99.90;;;;;;4980804;28;20119;-72
2024/01/18 12:43:16;;;;;;;3.83;1.23;;;3.20;99.90;;;;;;4988213;28;20044;-72
2024/01/18 12:45:42;;;;;;;3.20;1.27;;;3.30;99.90;;;;;;4995139;28;20033;-72